Time;durP1;ratioP1;P1;durP2;ratioP2;P2;SDS_P1;SDS_P2;PMS_P1;PMS_P2;Temp;Humidity;BMP_temperature;BMP_pressure;BME280_temperature;BME280_humidity;BME280_pressure;Samples;Min_cycle;Max_cycle;Signal;HPM_P1;HPM_P2
2021/01/26 00:02:49;;;;;;;1.20;1.10;;;20.10;45.20;;;;;;6244455;28;20111;-49
2021/01/26 00:05:50;;;;;;;1.58;1.25;;;20.20;45.20;;;;;;6245519;28;20096;-51
2021/01/26 00:08:50;;;;;;;1.17;1.02;;;20.10;45.10;;;;;;6219989;28;20026;-49
2021/01/26 00:11:51;;;;;;;2.40;1.20;;;20.10;45.20;;;;;;6261783;28;20104;-49
2021/01/26 00:14:52;;;;;;;1.13;1.02;;;20.10;45.20;;;;;;6264175;28;20025;-48
2021/01/26 00:17:54;;;;;;;1.65;1.20;;;20.10;45.20;;;;;;6243858;28;20480;-56
2021/01/26 00:20:54;;;;;;;2.15;1.20;;;20.10;45.10;;;;;;6243378;28;20017;-54
2021/01/26 00:23:55;;;;;;;2.25;1.30;;;20.10;45.20;;;;;;6243537;28;20045;-51
2021/01/26 00:26:55;;;;;;;1.60;1.10;;;20.10;45.10;;;;;;6243231;28;20076;-49
2021/01/26 00:29:56;;;;;;;1.70;1.38;;;20.10;45.20;;;;;;6244951;28;20029;-53
2021/01/26 00:32:58;;;;;;;1.92;1.30;;;20.10;45.20;;;;;;6268315;28;20476;-51
2021/01/26 00:35:59;;;;;;;1.88;1.30;;;20.10;45.20;;;;;;6267651;28;20021;-54
2021/01/26 00:38:59;;;;;;;1.52;0.80;;;20.00;45.20;;;;;;6268590;28;20087;-54
2021/01/26 00:42:00;;;;;;;2.25;0.98;;;20.00;45.90;;;;;;6268274;28;20091;-52
2021/01/26 00:45:03;;;;;;;1.92;1.25;;;20.10;45.30;;;;;;6268099;28;20031;-53
2021/01/26 00:48:05;;;;;;;1.30;1.00;;;20.00;45.20;;;;;;6243516;28;20505;-52
2021/01/26 00:51:06;;;;;;;1.02;0.90;;;20.00;45.30;;;;;;6251019;28;20029;-50
2021/01/26 00:54:07;;;;;;;1.70;1.00;;;20.00;45.20;;;;;;6268030;28;20382;-51
2021/01/26 00:57:09;;;;;;;1.50;1.00;;;20.00;45.20;;;;;;6267087;28;20071;-48
2021/01/26 01:00:16;;;;;;;2.15;1.25;;;20.00;45.20;;;;;;6269508;28;20053;-52
2021/01/26 01:03:17;;;;;;;1.48;0.98;;;20.00;45.10;;;;;;6243713;28;20044;-49
2021/01/26 01:06:17;;;;;;;2.08;1.38;;;20.00;45.40;;;;;;6240868;28;20112;-53
2021/01/26 01:09:18;;;;;;;2.05;1.25;;;20.00;45.30;;;;;;6243329;28;20053;-48
2021/01/26 01:12:19;;;;;;;1.35;1.20;;;20.00;45.20;;;;;;6243997;28;20076;-55
2021/01/26 01:15:20;;;;;;;2.38;1.45;;;20.00;45.20;;;;;;6241923;28;20168;-53
2021/01/26 01:18:21;;;;;;;1.55;1.08;;;20.00;45.30;;;;;;6264717;28;20017;-52
2021/01/26 01:21:21;;;;;;;1.92;1.15;;;20.00;45.20;;;;;;6265455;28;20047;-50
2021/01/26 01:24:22;;;;;;;1.52;1.20;;;20.00;45.20;;;;;;6249123;28;20075;-50
2021/01/26 01:27:23;;;;;;;1.38;1.10;;;20.00;45.40;;;;;;6253824;28;20491;-48
2021/01/26 01:30:27;;;;;;;1.15;0.90;;;20.00;45.30;;;;;;6242736;28;20502;-48
2021/01/26 01:33:28;;;;;;;1.90;1.17;;;20.00;45.20;;;;;;6244179;28;20057;-49
2021/01/26 01:36:28;;;;;;;1.10;0.90;;;20.00;45.40;;;;;;6263463;28;20032;-49
2021/01/26 01:39:29;;;;;;;1.40;1.00;;;20.00;45.40;;;;;;6242303;28;20108;-54
2021/01/26 01:42:30;;;;;;;1.40;1.00;;;20.00;45.20;;;;;;6243678;28;20025;-53
2021/01/26 01:45:30;;;;;;;1.23;1.13;;;20.00;45.30;;;;;;6241591;28;20082;-52
2021/01/26 01:48:35;;;;;;;1.05;0.95;;;20.00;45.30;;;;;;6261698;28;20033;-52
2021/01/26 01:51:40;;;;;;;1.23;1.10;;;20.00;45.30;;;;;;6265246;28;20037;-54
2021/01/26 01:54:46;;;;;;;1.20;1.10;;;19.90;45.30;;;;;;6242154;28;20267;-51
2021/01/26 01:57:55;;;;;;;1.08;0.98;;;20.00;45.40;;;;;;6252369;28;20091;-53
2021/01/26 02:01:06;;;;;;;1.48;1.00;;;19.90;45.10;;;;;;6266182;28;20088;-51
2021/01/26 02:04:11;;;;;;;1.67;0.95;;;19.90;45.30;;;;;;6243202;28;20049;-54
2021/01/26 02:07:12;;;;;;;1.88;1.02;;;19.90;45.30;;;;;;6235125;28;20075;-54
2021/01/26 02:10:13;;;;;;;3.30;1.00;;;19.90;45.30;;;;;;6266767;28;20041;-48
2021/01/26 02:13:14;;;;;;;1.05;0.93;;;19.90;45.40;;;;;;6266083;28;20029;-55
2021/01/26 02:16:41;;;;;;;1.58;1.17;;;19.90;45.30;;;;;;6266126;28;20037;-54
2021/01/26 02:20:11;;;;;;;2.38;1.30;;;19.90;45.30;;;;;;6266311;28;20021;-54
2021/01/26 02:23:36;;;;;;;1.23;0.80;;;19.90;45.40;;;;;;6254680;28;20022;-53
2021/01/26 02:27:03;;;;;;;1.73;1.10;;;19.90;45.40;;;;;;6241117;28;20049;-49
2021/01/26 02:30:22;;;;;;;1.35;1.05;;;19.90;45.40;;;;;;6239939;28;20395;-49
2021/01/26 02:34:07;;;;;;;1.67;0.90;;;19.90;45.40;;;;;;6242120;28;20873;-50
2021/01/26 02:37:20;;;;;;;1.13;0.95;;;19.90;45.50;;;;;;6235584;28;20072;-51
2021/01/26 02:40:25;;;;;;;1.23;1.00;;;19.90;45.40;;;;;;6265611;28;20032;-53
2021/01/26 02:43:42;;;;;;;1.15;0.90;;;19.90;45.40;;;;;;6266881;28;20032;-50
2021/01/26 02:46:44;;;;;;;0.90;0.80;;;19.90;45.40;;;;;;6270248;28;20059;-52
2021/01/26 02:50:27;;;;;;;1.20;1.10;;;19.90;45.30;;;;;;6269538;28;20017;-48
2021/01/26 02:53:35;;;;;;;1.35;0.90;;;19.90;45.50;;;;;;6270433;28;20446;-49
2021/01/26 02:56:45;;;;;;;1.00;0.75;;;19.90;45.30;;;;;;6270449;28;20036;-53
2021/01/26 02:59:58;;;;;;;0.70;0.70;;;19.90;45.50;;;;;;6268744;28;20025;-52
2021/01/26 03:03:24;;;;;;;1.00;0.90;;;19.90;45.30;;;;;;6284177;28;20386;-49
2021/01/26 03:06:30;;;;;;;1.85;1.10;;;19.90;45.50;;;;;;6248714;28;20065;-49
2021/01/26 03:09:39;;;;;;;1.33;0.90;;;19.90;45.40;;;;;;6264958;28;20029;-48
2021/01/26 03:12:45;;;;;;;1.67;1.00;;;19.90;45.90;;;;;;6270267;28;20029;-50
2021/01/26 03:15:58;;;;;;;0.90;0.80;;;19.90;45.60;;;;;;6268291;28;20108;-51
2021/01/26 03:19:13;;;;;;;1.33;0.95;;;19.90;45.40;;;;;;6261559;28;20129;-51
2021/01/26 03:22:16;;;;;;;1.23;0.95;;;19.90;45.40;;;;;;6245882;28;20486;-50
2021/01/26 03:25:20;;;;;;;1.10;1.00;;;19.90;45.20;;;;;;6263717;28;20032;-52
2021/01/26 03:28:27;;;;;;;1.25;1.08;;;19.90;45.50;;;;;;6269217;28;20037;-48
2021/01/26 03:31:35;;;;;;;0.60;0.60;;;19.90;45.50;;;;;;6244997;28;20059;-54
2021/01/26 03:34:36;;;;;;;0.98;0.80;;;19.90;45.40;;;;;;6242555;28;20502;-52
2021/01/26 03:37:38;;;;;;;1.20;0.90;;;19.90;45.50;;;;;;6269643;28;20071;-48
2021/01/26 03:40:39;;;;;;;1.05;0.90;;;19.90;45.30;;;;;;6251677;28;20036;-54
2021/01/26 03:43:39;;;;;;;1.08;0.85;;;19.80;45.20;;;;;;6246607;28;20041;-50
2021/01/26 03:46:48;;;;;;;0.95;0.80;;;19.80;45.30;;;;;;6269004;28;20035;-51
2021/01/26 03:50:16;;;;;;;0.98;0.80;;;19.90;45.40;;;;;;6249677;28;20516;-51
2021/01/26 03:53:20;;;;;;;1.08;0.77;;;19.80;45.60;;;;;;6268817;28;20051;-54
2021/01/26 03:56:42;;;;;;;0.80;0.60;;;19.80;45.40;;;;;;6266224;28;20075;-53
2021/01/26 03:59:54;;;;;;;1.35;0.98;;;19.80;45.40;;;;;;6259906;28;20112;-51
2021/01/26 04:03:16;;;;;;;1.50;0.90;;;19.80;45.10;;;;;;6226555;28;20397;-51
2021/01/26 04:06:27;;;;;;;0.95;0.80;;;19.80;45.60;;;;;;6235741;28;20125;-52
2021/01/26 04:09:34;;;;;;;1.33;0.90;;;19.80;45.30;;;;;;6230542;28;20025;-57
2021/01/26 04:12:39;;;;;;;1.20;0.90;;;19.80;45.40;;;;;;6269142;28;20033;-50
2021/01/26 04:15:49;;;;;;;1.93;0.97;;;19.80;45.50;;;;;;6266900;28;20284;-53
2021/01/26 04:18:52;;;;;;;1.40;0.90;;;19.80;45.50;;;;;;6269109;28;20259;-53
2021/01/26 04:21:52;;;;;;;1.00;0.90;;;19.80;45.10;;;;;;6268755;28;20021;-52
2021/01/26 04:24:53;;;;;;;0.85;0.73;;;19.80;45.50;;;;;;6267753;28;20044;-49
2021/01/26 04:27:54;;;;;;;0.70;0.70;;;19.80;45.30;;;;;;6250783;28;20033;-55
2021/01/26 04:30:54;;;;;;;1.05;0.80;;;19.80;45.50;;;;;;6238822;28;20032;-50
2021/01/26 04:33:55;;;;;;;1.35;0.90;;;19.80;45.30;;;;;;6243188;28;20056;-51
2021/01/26 04:36:55;;;;;;;1.75;0.90;;;19.80;45.50;;;;;;6243874;28;20231;-51
2021/01/26 04:39:56;;;;;;;1.15;0.90;;;19.80;45.60;;;;;;6243779;28;20033;-53
2021/01/26 04:43:18;;;;;;;1.33;0.90;;;19.80;45.60;;;;;;6243471;28;20088;-55
2021/01/26 04:46:32;;;;;;;0.80;0.70;;;19.80;45.60;;;;;;6243407;28;20569;-51
2021/01/26 04:50:03;;;;;;;2.08;1.00;;;19.80;45.60;;;;;;6243661;28;20434;-53
2021/01/26 04:53:25;;;;;;;1.42;0.90;;;19.80;45.30;;;;;;6218640;28;20060;-54
2021/01/26 04:56:54;;;;;;;1.98;1.10;;;19.80;45.50;;;;;;6243952;28;20029;-53
2021/01/26 05:00:04;;;;;;;0.93;0.70;;;19.80;45.40;;;;;;6242322;28;20540;-54
2021/01/26 05:03:30;;;;;;;1.40;0.93;;;19.80;45.70;;;;;;6219271;28;20032;-55
2021/01/26 05:06:48;;;;;;;1.00;0.90;;;19.80;45.60;;;;;;6231273;28;20030;-53
2021/01/26 05:10:27;;;;;;;1.33;1.00;;;19.80;44.90;;;;;;6243012;28;20029;-51
2021/01/26 05:13:36;;;;;;;0.90;0.80;;;19.80;44.80;;;;;;6241430;28;20065;-50
2021/01/26 05:16:43;;;;;;;1.05;0.95;;;19.90;44.70;;;;;;6243827;28;20022;-50
2021/01/26 05:19:49;;;;;;;0.82;0.80;;;19.90;44.70;;;;;;6242792;28;20025;-57
2021/01/26 05:22:58;;;;;;;1.10;0.90;;;19.90;44.70;;;;;;6243239;28;20033;-50
2021/01/26 05:25:58;;;;;;;4.53;0.98;;;19.90;45.00;;;;;;6245775;28;20025;-49
2021/01/26 05:28:59;;;;;;;1.02;0.80;;;19.90;44.70;;;;;;6249815;28;20035;-50
2021/01/26 05:32:03;;;;;;;0.95;0.85;;;19.90;44.60;;;;;;6255283;28;20025;-51
2021/01/26 05:35:05;;;;;;;1.08;0.77;;;19.90;44.60;;;;;;6242141;28;20495;-52
2021/01/26 05:38:05;;;;;;;1.38;0.88;;;19.90;44.60;;;;;;6263867;28;20100;-54
2021/01/26 05:41:08;;;;;;;1.30;1.00;;;20.00;44.70;;;;;;6263402;28;20126;-52
2021/01/26 05:44:09;;;;;;;2.72;1.00;;;20.00;44.70;;;;;;6242022;28;20053;-56
2021/01/26 05:47:21;;;;;;;1.00;0.85;;;19.90;44.60;;;;;;6224647;28;20028;-51
2021/01/26 05:50:25;;;;;;;1.48;0.98;;;20.00;44.70;;;;;;6242395;28;20026;-51
2021/01/26 05:53:30;;;;;;;1.27;0.90;;;20.00;44.70;;;;;;6262567;28;20037;-51
2021/01/26 05:56:31;;;;;;;0.95;0.75;;;20.00;44.70;;;;;;6256324;28;20113;-54
2021/01/26 05:59:37;;;;;;;0.98;0.88;;;20.00;44.70;;;;;;6268848;28;20112;-53
2021/01/26 06:02:38;;;;;;;0.80;0.80;;;20.00;44.60;;;;;;6254289;28;20022;-53
2021/01/26 06:05:40;;;;;;;1.00;0.80;;;20.00;44.70;;;;;;6237780;28;20040;-53
2021/01/26 06:08:53;;;;;;;1.73;1.00;;;20.00;44.70;;;;;;6240112;28;20088;-57
2021/01/26 06:12:15;;;;;;;0.80;0.70;;;20.00;44.70;;;;;;6244778;28;20334;-53
2021/01/26 06:15:21;;;;;;;0.82;0.80;;;20.00;44.70;;;;;;6243967;28;20021;-53
2021/01/26 06:18:22;;;;;;;3.00;1.05;;;20.00;44.70;;;;;;6245437;28;20021;-55
2021/01/26 06:21:22;;;;;;;5.28;1.55;;;20.00;44.60;;;;;;6229791;28;20052;-55
2021/01/26 06:24:26;;;;;;;2.72;1.65;;;20.10;44.20;;;;;;6247525;28;20033;-57
2021/01/26 06:27:50;;;;;;;9.75;1.60;;;20.20;44.00;;;;;;6247439;28;20025;-56
2021/01/26 06:31:05;;;;;;;6.25;1.27;;;20.20;44.10;;;;;;6248295;28;20080;-54
2021/01/26 06:34:32;;;;;;;7.40;1.25;;;20.30;44.30;;;;;;6247631;28;20037;-55
2021/01/26 06:37:51;;;;;;;9.32;1.42;;;20.30;44.30;;;;;;6247604;28;20085;-54
2021/01/26 06:41:30;;;;;;;6.55;1.23;;;20.30;44.50;;;;;;6248195;28;20044;-54
2021/01/26 06:44:32;;;;;;;4.00;1.40;;;20.30;44.70;;;;;;6260634;28;20405;-54
2021/01/26 06:48:17;;;;;;;11.88;1.42;;;20.30;44.70;;;;;;6251312;28;20025;-50
2021/01/26 06:51:44;;;;;;;9.00;1.20;;;20.30;44.80;;;;;;6226212;28;20099;-54
2021/01/26 06:55:28;;;;;;;4.53;1.38;;;20.20;44.60;;;;;;6246112;28;20108;-52
2021/01/26 06:58:37;;;;;;;5.90;1.27;;;20.10;44.70;;;;;;6207600;28;20028;-51
2021/01/26 07:02:03;;;;;;;4.35;1.23;;;20.10;44.70;;;;;;6249753;28;20032;-55
2021/01/26 07:05:09;;;;;;;2.45;1.20;;;20.10;44.80;;;;;;6262187;28;20522;-53
2021/01/26 07:08:31;;;;;;;4.43;1.00;;;20.10;44.80;;;;;;6245809;28;20056;-57
2021/01/26 07:11:54;;;;;;;3.45;1.00;;;20.10;44.80;;;;;;6264235;28;20157;-54
2021/01/26 07:15:25;;;;;;;2.13;0.95;;;20.10;44.80;;;;;;6259872;28;20072;-54
2021/01/26 07:18:38;;;;;;;2.53;1.20;;;20.10;44.80;;;;;;6263583;28;20030;-51
2021/01/26 07:21:53;;;;;;;1.95;0.95;;;20.10;44.70;;;;;;6262568;28;20087;-56
2021/01/26 07:25:38;;;;;;;2.47;1.10;;;20.10;44.70;;;;;;6261487;28;20033;-52
2021/01/26 07:28:57;;;;;;;2.10;0.90;;;20.10;44.70;;;;;;6182962;28;20049;-50
2021/01/26 07:32:12;;;;;;;3.35;0.80;;;20.10;44.80;;;;;;6264881;28;20021;-55
2021/01/26 07:35:49;;;;;;;2.50;1.10;;;20.10;44.70;;;;;;6254448;28;20068;-56
2021/01/26 07:39:16;;;;;;;1.38;0.80;;;20.10;44.70;;;;;;6223212;28;20505;-51
2021/01/26 07:42:27;;;;;;;2.53;1.02;;;20.10;44.70;;;;;;6267759;28;20021;-52
2021/01/26 07:45:40;;;;;;;2.17;1.20;;;20.00;44.60;;;;;;6255211;28;20057;-52
2021/01/26 07:48:54;;;;;;;1.75;0.98;;;20.10;44.70;;;;;;6267212;28;20018;-53
2021/01/26 07:51:58;;;;;;;0.90;0.90;;;20.10;44.70;;;;;;6248672;28;20107;-51
2021/01/26 07:55:18;;;;;;;2.05;1.00;;;20.10;44.70;;;;;;6248202;28;20486;-55
2021/01/26 07:58:18;;;;;;;4.28;2.10;;;20.10;44.70;;;;;;6247931;28;20025;-54
2021/01/26 08:01:25;;;;;;;10.48;2.40;;;20.00;44.20;;;;;;6246741;28;20501;-52
2021/01/26 08:04:28;;;;;;;8.00;1.95;;;20.00;44.20;;;;;;6251671;28;20028;-54
2021/01/26 08:07:31;;;;;;;4.15;2.30;;;20.10;44.20;;;;;;6258966;28;20029;-55
2021/01/26 08:10:32;;;;;;;4.80;1.70;;;20.20;44.10;;;;;;6258606;28;20509;-58
2021/01/26 08:13:35;;;;;;;2.75;1.60;;;20.30;44.50;;;;;;6255622;28;20100;-56
2021/01/26 08:16:43;;;;;;;4.32;2.30;;;20.20;44.10;;;;;;6268483;28;20029;-57
2021/01/26 08:19:48;;;;;;;7.63;2.60;;;20.10;43.80;;;;;;6253542;28;20048;-57
2021/01/26 08:23:01;;;;;;;3.58;2.13;;;20.00;43.70;;;;;;6245953;28;20044;-55
2021/01/26 08:26:18;;;;;;;6.50;2.10;;;20.00;43.60;;;;;;6259402;28;20029;-53
2021/01/26 08:29:40;;;;;;;2.20;1.60;;;20.00;43.80;;;;;;6264258;28;20113;-57
2021/01/26 08:32:43;;;;;;;3.47;1.58;;;20.00;43.80;;;;;;6260599;28;20604;-53
2021/01/26 08:36:06;;;;;;;5.40;1.30;;;20.00;43.90;;;;;;6268804;28;20234;-55
2021/01/26 08:39:50;;;;;;;3.22;1.50;;;20.00;43.90;;;;;;6249195;28;20045;-53
2021/01/26 08:43:03;;;;;;;3.33;1.80;;;20.00;44.00;;;;;;6237345;28;20029;-57
2021/01/26 08:46:03;;;;;;;2.78;1.55;;;20.00;44.10;;;;;;6254323;28;20061;-53
2021/01/26 08:49:33;;;;;;;3.28;1.45;;;20.00;44.00;;;;;;6265125;28;20091;-54
2021/01/26 08:52:33;;;;;;;3.45;1.45;;;20.00;44.10;;;;;;6250379;28;20021;-57
2021/01/26 08:55:41;;;;;;;1.77;1.33;;;20.00;44.10;;;;;;6257933;28;20028;-51
2021/01/26 08:59:01;;;;;;;2.90;1.27;;;20.00;44.10;;;;;;6257880;28;20041;-55
2021/01/26 09:02:02;;;;;;;3.22;1.08;;;20.00;44.20;;;;;;6247339;28;20022;-54
2021/01/26 09:05:04;;;;;;;1.90;1.40;;;20.00;44.20;;;;;;6264952;28;20104;-51
2021/01/26 09:08:05;;;;;;;1.75;1.00;;;20.00;44.20;;;;;;6232074;28;20102;-53
2021/01/26 09:11:40;;;;;;;4.82;1.40;;;20.00;44.20;;;;;;6258454;28;20448;-57
2021/01/26 09:14:53;;;;;;;1.90;1.33;;;20.00;44.20;;;;;;6244222;28;20096;-55
2021/01/26 09:17:58;;;;;;;1.85;1.23;;;20.00;44.20;;;;;;6237900;28;20116;-54
2021/01/26 09:21:11;;;;;;;1.52;1.17;;;20.00;44.30;;;;;;6253539;28;20024;-55
2021/01/26 09:24:21;;;;;;;1.63;1.10;;;20.00;44.30;;;;;;6260482;28;20057;-54
2021/01/26 09:27:31;;;;;;;3.20;1.20;;;20.00;45.00;;;;;;6249025;28;20025;-54
2021/01/26 09:30:32;;;;;;;2.33;1.17;;;20.00;44.30;;;;;;6265183;28;20101;-56
2021/01/26 09:33:33;;;;;;;2.63;1.23;;;20.00;44.30;;;;;;6251958;28;20398;-53
2021/01/26 09:36:35;;;;;;;1.80;1.20;;;20.00;44.30;;;;;;6250229;28;20029;-57
2021/01/26 09:39:35;;;;;;;1.58;1.10;;;20.00;44.30;;;;;;6252589;28;20075;-57
2021/01/26 09:42:37;;;;;;;1.85;1.30;;;20.00;44.30;;;;;;6249019;28;20025;-57
2021/01/26 09:45:38;;;;;;;2.63;1.20;;;20.00;44.40;;;;;;6245624;28;20052;-57
2021/01/26 09:48:45;;;;;;;2.10;1.20;;;20.00;44.30;;;;;;6268700;28;20433;-56
2021/01/26 09:52:05;;;;;;;2.05;1.40;;;20.00;44.30;;;;;;6260235;28;20107;-54
2021/01/26 09:55:13;;;;;;;1.58;1.17;;;20.00;44.40;;;;;;6257950;28;20478;-57
2021/01/26 09:58:14;;;;;;;1.80;1.13;;;20.00;44.30;;;;;;6246885;28;20037;-55
2021/01/26 10:01:15;;;;;;;1.60;1.10;;;20.00;44.30;;;;;;6267837;28;20367;-57
2021/01/26 10:04:18;;;;;;;1.73;1.20;;;20.00;44.40;;;;;;6265488;28;20021;-53
2021/01/26 10:07:20;;;;;;;1.48;1.05;;;20.00;44.40;;;;;;6265045;28;20398;-53
2021/01/26 10:10:27;;;;;;;1.35;1.00;;;20.00;44.40;;;;;;6260643;28;20455;-54
2021/01/26 10:13:32;;;;;;;1.75;1.13;;;20.00;44.40;;;;;;6262021;28;20039;-56
2021/01/26 10:16:40;;;;;;;3.15;1.42;;;20.00;44.40;;;;;;6255400;28;20017;-58
2021/01/26 10:19:40;;;;;;;1.42;1.00;;;20.00;44.40;;;;;;6272207;28;20024;-56
2021/01/26 10:22:42;;;;;;;1.23;0.90;;;20.00;44.40;;;;;;6256026;28;20478;-55
2021/01/26 10:25:44;;;;;;;1.50;1.08;;;20.00;44.40;;;;;;6255163;28;20432;-52
2021/01/26 10:29:07;;;;;;;1.92;1.20;;;20.00;44.50;;;;;;6264240;28;20513;-57
2021/01/26 10:32:11;;;;;;;1.40;1.17;;;20.00;44.40;;;;;;6269986;28;20100;-58
2021/01/26 10:35:44;;;;;;;1.33;1.00;;;20.00;44.40;;;;;;6255010;28;20117;-56
2021/01/26 10:38:46;;;;;;;1.48;1.30;;;20.00;44.40;;;;;;6244872;28;20487;-51
2021/01/26 10:41:47;;;;;;;1.77;1.10;;;20.00;44.20;;;;;;6260536;28;20395;-57
2021/01/26 10:44:51;;;;;;;1.55;1.20;;;20.00;44.30;;;;;;6229835;28;20070;-55
2021/01/26 10:47:51;;;;;;;1.90;1.20;;;20.00;44.40;;;;;;6252948;28;20462;-57
2021/01/26 10:50:54;;;;;;;2.42;1.30;;;20.00;44.40;;;;;;6265032;28;20041;-53
2021/01/26 10:53:55;;;;;;;3.05;1.48;;;20.00;44.40;;;;;;6267668;28;20061;-53
2021/01/26 10:56:56;;;;;;;1.48;1.05;;;20.00;44.30;;;;;;6247569;28;20030;-53
2021/01/26 10:59:56;;;;;;;1.77;1.10;;;20.00;44.40;;;;;;6264216;28;20028;-56
2021/01/26 11:02:57;;;;;;;1.63;1.27;;;20.00;44.50;;;;;;6271123;28;20035;-51
2021/01/26 11:05:58;;;;;;;1.67;1.15;;;20.00;44.40;;;;;;6262939;28;20385;-56
2021/01/26 11:08:58;;;;;;;2.15;1.27;;;20.00;44.40;;;;;;6262574;28;20041;-55
2021/01/26 11:11:59;;;;;;;1.35;0.85;;;20.00;44.40;;;;;;6255609;28;20389;-54
2021/01/26 11:14:59;;;;;;;1.33;0.93;;;20.00;44.40;;;;;;6246616;28;20479;-51
2021/01/26 11:18:00;;;;;;;2.08;1.20;;;20.00;44.40;;;;;;6250054;28;20028;-56
2021/01/26 11:21:02;;;;;;;1.40;1.10;;;20.00;44.40;;;;;;6257145;28;20482;-51
2021/01/26 11:24:03;;;;;;;1.38;1.02;;;20.00;44.40;;;;;;6256893;28;20030;-57
2021/01/26 11:27:04;;;;;;;1.67;0.95;;;20.00;44.30;;;;;;6252479;28;20084;-54
2021/01/26 11:30:07;;;;;;;1.60;1.15;;;20.00;44.40;;;;;;6261974;28;20117;-56
2021/01/26 11:33:08;;;;;;;1.75;1.20;;;20.00;44.30;;;;;;6262175;28;20417;-52
2021/01/26 11:36:10;;;;;;;1.92;1.08;;;20.00;44.30;;;;;;6241440;28;20548;-56
2021/01/26 11:39:11;;;;;;;1.88;1.30;;;20.00;44.40;;;;;;6249493;28;20080;-55
2021/01/26 11:42:13;;;;;;;1.77;1.23;;;20.00;44.40;;;;;;6271276;28;20029;-57
2021/01/26 11:45:18;;;;;;;2.85;1.13;;;20.00;44.50;;;;;;6263098;28;20030;-54
2021/01/26 11:48:19;;;;;;;1.98;1.33;;;20.00;44.40;;;;;;6258505;28;20056;-55
2021/01/26 11:51:19;;;;;;;1.45;1.05;;;20.00;44.40;;;;;;6266148;28;20045;-54
2021/01/26 11:54:20;;;;;;;1.58;1.25;;;20.00;44.50;;;;;;6260451;28;20021;-55
2021/01/26 11:57:21;;;;;;;1.77;0.90;;;20.00;44.40;;;;;;6255310;28;20049;-56
2021/01/26 12:00:26;;;;;;;1.30;1.05;;;20.00;44.40;;;;;;6262742;28;20525;-54
2021/01/26 12:03:27;;;;;;;1.60;1.27;;;20.00;44.40;;;;;;6252025;28;20037;-56
2021/01/26 12:06:27;;;;;;;2.38;1.20;;;20.00;44.50;;;;;;6261919;28;20114;-54
2021/01/26 12:09:28;;;;;;;1.92;1.67;;;20.00;44.50;;;;;;6256412;28;20040;-55
2021/01/26 12:12:28;;;;;;;2.15;1.30;;;20.00;44.30;;;;;;6253601;28;20033;-51
2021/01/26 12:15:35;;;;;;;1.48;1.10;;;20.00;44.40;;;;;;6247521;28;20036;-57
2021/01/26 12:18:36;;;;;;;1.88;1.27;;;20.00;44.30;;;;;;6255709;28;20021;-52
2021/01/26 12:21:37;;;;;;;1.27;1.10;;;20.00;44.30;;;;;;6261450;28;20045;-56
2021/01/26 12:24:38;;;;;;;1.45;0.98;;;20.00;44.40;;;;;;6232081;28;20029;-58
2021/01/26 12:27:39;;;;;;;1.88;1.20;;;20.00;44.30;;;;;;6252656;28;20124;-54
2021/01/26 12:30:39;;;;;;;1.73;1.40;;;20.00;44.30;;;;;;6257115;28;20028;-55
2021/01/26 12:33:40;;;;;;;1.35;1.10;;;20.00;44.30;;;;;;6255205;28;20041;-56
2021/01/26 12:36:40;;;;;;;1.70;1.15;;;20.00;44.40;;;;;;6252268;28;20104;-57
2021/01/26 12:39:41;;;;;;;1.73;1.33;;;20.00;44.30;;;;;;6252293;28;20491;-56
2021/01/26 12:42:42;;;;;;;1.98;1.42;;;20.00;44.30;;;;;;6260579;28;20033;-55
2021/01/26 12:45:43;;;;;;;1.95;1.42;;;20.00;44.30;;;;;;6245591;28;20022;-52
2021/01/26 12:48:43;;;;;;;1.52;1.33;;;20.00;44.20;;;;;;6257691;28;20436;-56
2021/01/26 12:51:44;;;;;;;1.60;1.10;;;19.90;44.20;;;;;;6261192;28;20349;-58
2021/01/26 12:54:45;;;;;;;1.70;0.90;;;19.90;44.20;;;;;;6257778;28;20030;-51
2021/01/26 12:57:46;;;;;;;1.33;1.08;;;19.90;44.30;;;;;;6236087;28;20033;-51
2021/01/26 13:00:47;;;;;;;1.63;1.23;;;20.00;44.30;;;;;;6250720;28;20079;-56
2021/01/26 13:03:48;;;;;;;2.42;1.25;;;20.00;44.30;;;;;;6239797;28;20036;-51
2021/01/26 13:06:48;;;;;;;1.55;1.02;;;20.00;44.20;;;;;;6252546;28;20389;-56
2021/01/26 13:09:49;;;;;;;1.30;1.20;;;20.00;44.30;;;;;;6262537;28;20033;-55
2021/01/26 13:12:51;;;;;;;2.75;1.20;;;20.00;44.30;;;;;;6260756;28;20083;-57
2021/01/26 13:15:51;;;;;;;3.13;1.10;;;19.90;44.20;;;;;;6256568;28;20025;-54
2021/01/26 13:18:52;;;;;;;1.65;1.10;;;20.00;44.30;;;;;;6251896;28;20087;-53
2021/01/26 13:21:53;;;;;;;2.60;1.48;;;19.90;44.30;;;;;;6252452;28;20025;-58
2021/01/26 13:24:53;;;;;;;1.52;1.10;;;19.90;44.30;;;;;;6250473;28;20032;-53
2021/01/26 13:27:54;;;;;;;1.55;1.10;;;20.00;44.30;;;;;;6251765;28;20140;-53
2021/01/26 13:30:55;;;;;;;1.35;1.13;;;20.00;44.20;;;;;;6245416;28;20026;-56
2021/01/26 13:33:56;;;;;;;1.50;0.95;;;20.00;44.30;;;;;;6251644;28;20127;-56
2021/01/26 13:36:56;;;;;;;1.27;1.13;;;20.00;44.40;;;;;;6253041;28;20041;-56
2021/01/26 13:39:57;;;;;;;1.80;1.23;;;20.00;44.30;;;;;;6265449;28;20135;-54
2021/01/26 13:42:58;;;;;;;1.88;1.00;;;19.90;44.20;;;;;;6245138;28;20269;-54
2021/01/26 13:45:58;;;;;;;1.60;1.10;;;19.90;44.20;;;;;;6259897;28;20033;-55
2021/01/26 13:48:59;;;;;;;1.70;1.20;;;19.90;44.20;;;;;;6267159;28;20079;-51
2021/01/26 13:52:00;;;;;;;2.33;1.30;;;19.90;44.20;;;;;;6242884;28;20029;-54
2021/01/26 13:55:01;;;;;;;2.03;1.38;;;20.00;44.30;;;;;;6243293;28;20033;-55
2021/01/26 13:58:02;;;;;;;3.78;1.23;;;19.90;44.20;;;;;;6257821;28;20025;-50
2021/01/26 14:01:03;;;;;;;2.30;1.10;;;19.90;44.30;;;;;;6237827;28;20392;-54
2021/01/26 14:04:05;;;;;;;1.80;1.27;;;19.90;44.30;;;;;;6249384;28;20454;-54
2021/01/26 14:07:05;;;;;;;1.50;0.95;;;19.90;44.30;;;;;;6244492;28;20025;-54
2021/01/26 14:10:08;;;;;;;1.52;1.20;;;19.90;44.30;;;;;;6250281;28;20052;-56
2021/01/26 14:13:09;;;;;;;1.35;1.10;;;19.90;44.30;;;;;;6253846;28;20390;-51
2021/01/26 14:16:10;;;;;;;1.45;1.10;;;19.90;44.30;;;;;;6248125;28;20029;-53
2021/01/26 14:19:12;;;;;;;2.35;1.20;;;19.90;44.30;;;;;;6261636;28;20022;-51
2021/01/26 14:22:15;;;;;;;1.23;1.00;;;19.90;44.30;;;;;;6260871;28;20436;-54
2021/01/26 14:25:17;;;;;;;1.80;1.17;;;19.90;44.30;;;;;;6258765;28;20102;-52
2021/01/26 14:28:18;;;;;;;1.35;1.17;;;19.90;44.30;;;;;;6255189;28;20386;-58
2021/01/26 14:31:18;;;;;;;1.08;0.95;;;19.90;44.30;;;;;;6259420;28;20060;-54
2021/01/26 14:34:19;;;;;;;1.40;1.00;;;19.90;44.30;;;;;;6259413;28;20044;-52
2021/01/26 14:37:20;;;;;;;1.40;0.95;;;19.90;44.20;;;;;;6256124;28;20089;-58
2021/01/26 14:40:23;;;;;;;1.85;1.30;;;20.00;44.30;;;;;;6257527;28;20100;-55
2021/01/26 14:43:25;;;;;;;1.75;1.00;;;19.90;44.30;;;;;;6256316;28;20041;-57
2021/01/26 14:46:27;;;;;;;1.67;1.02;;;19.90;44.30;;;;;;6237739;28;20443;-56
2021/01/26 14:49:28;;;;;;;1.30;1.00;;;20.00;44.40;;;;;;6254438;28;20029;-53
2021/01/26 14:52:32;;;;;;;1.80;1.20;;;20.00;44.40;;;;;;6254942;28;20071;-51
2021/01/26 14:55:32;;;;;;;1.50;1.10;;;20.00;44.40;;;;;;6255834;28;20027;-48
2021/01/26 14:58:33;;;;;;;1.23;1.05;;;20.00;44.40;;;;;;6270464;28;20021;-49
2021/01/26 15:01:34;;;;;;;1.55;1.25;;;20.00;44.50;;;;;;6263769;28;20020;-49
2021/01/26 15:04:36;;;;;;;0.70;0.65;;;20.00;44.40;;;;;;6256416;28;20033;-48
2021/01/26 15:07:38;;;;;;;1.10;1.00;;;20.00;44.50;;;;;;6266144;28;20064;-49
2021/01/26 15:10:39;;;;;;;1.35;1.15;;;20.00;44.40;;;;;;6264487;28;20080;-49
2021/01/26 15:13:39;;;;;;;1.05;0.90;;;20.00;44.50;;;;;;6268610;28;20437;-50
2021/01/26 15:16:41;;;;;;;2.92;1.10;;;20.00;44.40;;;;;;6268595;28;20028;-48
2021/01/26 15:19:42;;;;;;;1.30;0.80;;;20.00;44.50;;;;;;6255555;28;20018;-48
2021/01/26 15:22:43;;;;;;;13.80;1.63;;;20.00;44.50;;;;;;6244394;28;20030;-53
2021/01/26 15:25:44;;;;;;;14.88;2.65;;;20.00;43.90;;;;;;6249827;28;20029;-49
2021/01/26 15:28:45;;;;;;;6.60;1.30;;;20.00;44.30;;;;;;6255342;28;20064;-51
2021/01/26 15:31:46;;;;;;;13.43;1.50;;;20.10;44.60;;;;;;6266400;28;20033;-50
2021/01/26 15:34:46;;;;;;;7.47;1.30;;;20.20;43.90;;;;;;6250429;28;20076;-51
2021/01/26 15:37:50;;;;;;;7.38;1.35;;;20.20;44.00;;;;;;6257462;28;20035;-51
2021/01/26 15:40:50;;;;;;;4.75;1.25;;;20.40;44.10;;;;;;6260310;28;20040;-49
2021/01/26 15:43:51;;;;;;;3.97;1.25;;;20.40;44.00;;;;;;6260710;28;20433;-49
2021/01/26 15:46:52;;;;;;;2.17;1.20;;;20.40;44.00;;;;;;6252947;28;20064;-50
2021/01/26 15:49:53;;;;;;;13.45;2.15;;;20.40;44.00;;;;;;6237499;28;20066;-56
2021/01/26 15:52:54;;;;;;;9.90;1.65;;;20.50;44.00;;;;;;6261816;28;20421;-49
2021/01/26 15:55:55;;;;;;;12.30;1.63;;;20.50;43.80;;;;;;6211501;28;20018;-55
2021/01/26 15:58:56;;;;;;;22.70;2.08;;;20.60;43.80;;;;;;6253446;28;20509;-54
2021/01/26 16:01:56;;;;;;;11.30;1.80;;;20.50;43.60;;;;;;6268180;28;20025;-52
2021/01/26 16:04:57;;;;;;;5.30;1.60;;;20.50;43.70;;;;;;6248629;28;20104;-57
2021/01/26 16:07:58;;;;;;;8.15;1.35;;;20.50;43.70;;;;;;6238483;28;20069;-51
2021/01/26 16:10:58;;;;;;;10.95;1.27;;;20.60;43.90;;;;;;6245620;28;20025;-52